sensor_id;sensor_type;location;lat;lon;timestamp;pressure;altitude;pressure_sealevel;temperature;humidity
44825;BME280;30542;47.928;2.138;2022-11-23T00:00:03;98835.91;;;21.45;nan
44825;BME280;30542;47.928;2.138;2022-11-23T00:05:04;98841.13;;;21.50;nan
44825;BME280;30542;47.928;2.138;2022-11-23T00:10:05;98823.94;;;21.42;nan
44825;BME280;30542;47.928;2.138;2022-11-23T00:15:06;98831.59;;;21.35;nan
44825;BME280;30542;47.928;2.138;2022-11-23T00:20:07;98813.03;;;21.39;nan
44825;BME280;30542;47.928;2.138;2022-11-23T00:25:08;98807.75;;;21.25;nan
44825;BME280;30542;47.928;2.138;2022-11-23T00:30:09;98820.22;;;21.29;nan
44825;BME280;30542;47.928;2.138;2022-11-23T00:35:09;98815.84;;;21.33;nan
44825;BME280;30542;47.928;2.138;2022-11-23T00:40:10;98817.53;;;21.29;nan
44825;BME280;30542;47.928;2.138;2022-11-23T00:45:10;98809.19;;;21.31;nan
44825;BME280;30542;47.928;2.138;2022-11-23T00:50:11;98816.25;;;21.27;nan
44825;BME280;30542;47.928;2.138;2022-11-23T00:55:11;98813.13;;;21.25;nan
44825;BME280;30542;47.928;2.138;2022-11-23T01:00:12;98807.91;;;21.20;nan
44825;BME280;30542;47.928;2.138;2022-11-23T01:05:12;98796.63;;;21.00;nan
44825;BME280;30542;47.928;2.138;2022-11-23T01:10:13;98805.63;;;21.04;nan
44825;BME280;30542;47.928;2.138;2022-11-23T01:15:13;98807.56;;;21.13;nan
44825;BME280;30542;47.928;2.138;2022-11-23T01:20:14;98803.75;;;21.14;nan
44825;BME280;30542;47.928;2.138;2022-11-23T01:25:14;98790.66;;;21.03;nan
44825;BME280;30542;47.928;2.138;2022-11-23T01:30:15;98779.94;;;21.03;nan
44825;BME280;30542;47.928;2.138;2022-11-23T01:35:15;98762.13;;;20.99;nan
44825;BME280;30542;47.928;2.138;2022-11-23T01:40:16;98749.84;;;20.98;nan
44825;BME280;30542;47.928;2.138;2022-11-23T01:50:37;98759.44;;;20.90;nan
44825;BME280;30542;47.928;2.138;2022-11-23T01:55:37;98741.31;;;20.87;nan
44825;BME280;30542;47.928;2.138;2022-11-23T02:00:38;98747.78;;;20.95;nan
44825;BME280;30542;47.928;2.138;2022-11-23T02:05:51;98706.75;;;20.77;nan
44825;BME280;30542;47.928;2.138;2022-11-23T02:10:58;98699.13;;;20.93;nan
44825;BME280;30542;47.928;2.138;2022-11-23T02:15:59;98686.25;;;20.95;nan
44825;BME280;30542;47.928;2.138;2022-11-23T02:21:01;98680.53;;;20.88;nan
44825;BME280;30542;47.928;2.138;2022-11-23T02:26:14;98672.50;;;20.88;nan
44825;BME280;30542;47.928;2.138;2022-11-23T02:31:16;98678.03;;;20.91;nan
44825;BME280;30542;47.928;2.138;2022-11-23T02:46:39;98680.50;;;20.79;nan
44825;BME280;30542;47.928;2.138;2022-11-23T02:51:40;98672.34;;;20.84;nan
44825;BME280;30542;47.928;2.138;2022-11-23T02:56:40;98684.50;;;20.90;nan
44825;BME280;30542;47.928;2.138;2022-11-23T03:01:41;98675.22;;;21.05;nan
44825;BME280;30542;47.928;2.138;2022-11-23T03:06:41;98673.06;;;21.16;nan
44825;BME280;30542;47.928;2.138;2022-11-23T03:11:42;98668.81;;;21.23;nan
44825;BME280;30542;47.928;2.138;2022-11-23T03:16:42;98659.22;;;21.31;nan
44825;BME280;30542;47.928;2.138;2022-11-23T03:21:42;98655.03;;;21.47;nan
44825;BME280;30542;47.928;2.138;2022-11-23T03:26:43;98650.31;;;21.53;nan
44825;BME280;30542;47.928;2.138;2022-11-23T03:31:43;98638.94;;;21.56;nan
44825;BME280;30542;47.928;2.138;2022-11-23T03:36:44;98649.22;;;21.63;nan
44825;BME280;30542;47.928;2.138;2022-11-23T03:41:44;98648.75;;;21.69;nan
44825;BME280;30542;47.928;2.138;2022-11-23T03:46:45;98654.88;;;21.78;nan
44825;BME280;30542;47.928;2.138;2022-11-23T03:51:45;98661.34;;;21.77;nan
44825;BME280;30542;47.928;2.138;2022-11-23T03:56:46;98658.69;;;21.77;nan
44825;BME280;30542;47.928;2.138;2022-11-23T04:01:46;98646.69;;;21.83;nan
44825;BME280;30542;47.928;2.138;2022-11-23T04:06:46;98640.38;;;21.88;nan
44825;BME280;30542;47.928;2.138;2022-11-23T04:11:47;98617.69;;;21.86;nan
44825;BME280;30542;47.928;2.138;2022-11-23T04:16:47;98614.50;;;21.92;nan
44825;BME280;30542;47.928;2.138;2022-11-23T04:21:47;98617.34;;;21.96;nan
44825;BME280;30542;47.928;2.138;2022-11-23T04:26:48;98601.41;;;21.99;nan
44825;BME280;30542;47.928;2.138;2022-11-23T04:31:48;98596.69;;;21.96;nan
44825;BME280;30542;47.928;2.138;2022-11-23T04:36:49;98585.78;;;22.01;nan
44825;BME280;30542;47.928;2.138;2022-11-23T04:41:49;98568.47;;;21.99;nan
44825;BME280;30542;47.928;2.138;2022-11-23T04:46:49;98576.66;;;22.02;nan
44825;BME280;30542;47.928;2.138;2022-11-23T04:51:50;98568.09;;;22.09;nan
44825;BME280;30542;47.928;2.138;2022-11-23T04:56:50;98571.56;;;22.09;nan
44825;BME280;30542;47.928;2.138;2022-11-23T05:01:50;98567.16;;;22.14;nan
44825;BME280;30542;47.928;2.138;2022-11-23T05:06:51;98552.19;;;22.13;nan
44825;BME280;30542;47.928;2.138;2022-11-23T05:11:52;98564.00;;;22.12;nan
44825;BME280;30542;47.928;2.138;2022-11-23T05:16:52;98555.34;;;22.15;nan
44825;BME280;30542;47.928;2.138;2022-11-23T05:21:52;98542.72;;;22.15;nan
44825;BME280;30542;47.928;2.138;2022-11-23T05:26:53;98553.28;;;22.20;nan
44825;BME280;30542;47.928;2.138;2022-11-23T05:31:53;98493.72;;;21.89;nan
44825;BME280;30542;47.928;2.138;2022-11-23T05:36:53;98546.47;;;22.23;nan
44825;BME280;30542;47.928;2.138;2022-11-23T05:41:54;98551.06;;;22.14;nan
44825;BME280;30542;47.928;2.138;2022-11-23T05:46:54;98489.81;;;21.86;nan
44825;BME280;30542;47.928;2.138;2022-11-23T05:51:55;98547.41;;;22.27;nan
44825;BME280;30542;47.928;2.138;2022-11-23T05:56:55;98542.50;;;22.29;nan
44825;BME280;30542;47.928;2.138;2022-11-23T06:01:55;98541.41;;;22.30;nan
44825;BME280;30542;47.928;2.138;2022-11-23T06:06:56;98534.47;;;22.29;nan
44825;BME280;30542;47.928;2.138;2022-11-23T06:12:00;98533.81;;;22.32;nan
44825;BME280;30542;47.928;2.138;2022-11-23T06:17:00;98529.88;;;22.29;nan
44825;BME280;30542;47.928;2.138;2022-11-23T06:22:00;98528.31;;;22.28;nan
44825;BME280;30542;47.928;2.138;2022-11-23T06:27:01;98528.16;;;22.25;nan
44825;BME280;30542;47.928;2.138;2022-11-23T06:32:02;98523.75;;;22.29;nan
44825;BME280;30542;47.928;2.138;2022-11-23T06:37:02;98527.53;;;22.28;nan
44825;BME280;30542;47.928;2.138;2022-11-23T06:42:03;98525.81;;;22.23;nan
44825;BME280;30542;47.928;2.138;2022-11-23T06:47:03;98508.91;;;22.23;nan
44825;BME280;30542;47.928;2.138;2022-11-23T06:52:04;98512.63;;;22.39;nan
44825;BME280;30542;47.928;2.138;2022-11-23T06:57:07;98511.06;;;22.38;nan
44825;BME280;30542;47.928;2.138;2022-11-23T07:02:08;98513.09;;;22.41;nan
44825;BME280;30542;47.928;2.138;2022-11-23T07:07:08;98516.94;;;22.31;nan
44825;BME280;30542;47.928;2.138;2022-11-23T07:12:09;98508.84;;;22.40;nan
44825;BME280;30542;47.928;2.138;2022-11-23T07:17:09;98515.50;;;22.34;nan
44825;BME280;30542;47.928;2.138;2022-11-23T07:22:10;98512.22;;;22.28;nan
44825;BME280;30542;47.928;2.138;2022-11-23T07:27:10;98519.59;;;22.40;nan
44825;BME280;30542;47.928;2.138;2022-11-23T07:32:10;98529.28;;;22.24;nan
44825;BME280;30542;47.928;2.138;2022-11-23T07:37:13;98528.97;;;22.25;nan
44825;BME280;30542;47.928;2.138;2022-11-23T07:42:14;98515.44;;;22.13;nan
44825;BME280;30542;47.928;2.138;2022-11-23T07:47:14;98529.97;;;22.03;nan
44825;BME280;30542;47.928;2.138;2022-11-23T07:52:14;98535.84;;;21.88;nan
44825;BME280;30542;47.928;2.138;2022-11-23T07:57:15;98536.47;;;21.85;nan
44825;BME280;30542;47.928;2.138;2022-11-23T08:02:15;98532.72;;;21.69;nan
44825;BME280;30542;47.928;2.138;2022-11-23T08:07:16;98515.44;;;19.32;nan
44825;BME280;30542;47.928;2.138;2022-11-23T08:12:16;98533.13;;;18.42;nan
44825;BME280;30542;47.928;2.138;2022-11-23T08:17:16;98523.56;;;19.05;nan
44825;BME280;30542;47.928;2.138;2022-11-23T08:22:17;98499.78;;;20.16;nan
44825;BME280;30542;47.928;2.138;2022-11-23T08:27:18;98456.06;;;20.95;nan
44825;BME280;30542;47.928;2.138;2022-11-23T08:32:18;98480.78;;;21.52;nan
44825;BME280;30542;47.928;2.138;2022-11-23T08:37:18;98482.91;;;21.76;nan
44825;BME280;30542;47.928;2.138;2022-11-23T08:42:19;98496.56;;;21.92;nan
44825;BME280;30542;47.928;2.138;2022-11-23T08:47:19;98498.09;;;22.02;nan
44825;BME280;30542;47.928;2.138;2022-11-23T08:52:20;98486.44;;;22.06;nan
44825;BME280;30542;47.928;2.138;2022-11-23T08:57:20;98476.00;;;22.05;nan
44825;BME280;30542;47.928;2.138;2022-11-23T09:02:20;98491.00;;;22.15;nan
44825;BME280;30542;47.928;2.138;2022-11-23T09:07:21;98474.88;;;22.23;nan
44825;BME280;30542;47.928;2.138;2022-11-23T09:12:21;98470.47;;;22.19;nan
44825;BME280;30542;47.928;2.138;2022-11-23T09:17:21;98474.88;;;22.23;nan
44825;BME280;30542;47.928;2.138;2022-11-23T09:22:22;98474.34;;;22.30;nan
44825;BME280;30542;47.928;2.138;2022-11-23T09:27:22;98478.16;;;22.29;nan
44825;BME280;30542;47.928;2.138;2022-11-23T09:32:23;98456.09;;;22.23;nan
44825;BME280;30542;47.928;2.138;2022-11-23T09:37:24;98442.75;;;22.15;nan
44825;BME280;30542;47.928;2.138;2022-11-23T09:42:44;98463.16;;;22.28;nan
44825;BME280;30542;47.928;2.138;2022-11-23T09:53:11;98467.13;;;22.22;nan
44825;BME280;30542;47.928;2.138;2022-11-23T09:58:15;98470.09;;;22.29;nan
44825;BME280;30542;47.928;2.138;2022-11-23T10:03:16;98468.53;;;22.28;nan
44825;BME280;30542;47.928;2.138;2022-11-23T10:09:17;98469.47;;;22.32;nan
44825;BME280;30542;47.928;2.138;2022-11-23T10:19:54;98474.97;;;22.36;nan
44825;BME280;30542;47.928;2.138;2022-11-23T10:24:52;98483.31;;;22.34;nan
44825;BME280;30542;47.928;2.138;2022-11-23T10:29:53;98490.78;;;22.28;nan
44825;BME280;30542;47.928;2.138;2022-11-23T10:40:24;98505.56;;;22.34;nan
44825;BME280;30542;47.928;2.138;2022-11-23T10:45:27;98484.19;;;22.17;nan
44825;BME280;30542;47.928;2.138;2022-11-23T10:50:35;98518.53;;;22.32;nan
44825;BME280;30542;47.928;2.138;2022-11-23T10:55:50;98523.25;;;22.36;nan
44825;BME280;30542;47.928;2.138;2022-11-23T11:01:20;98507.31;;;22.30;nan
44825;BME280;30542;47.928;2.138;2022-11-23T11:06:23;98510.78;;;22.31;nan
44825;BME280;30542;47.928;2.138;2022-11-23T11:11:32;98514.72;;;22.33;nan
44825;BME280;30542;47.928;2.138;2022-11-23T11:16:36;98527.00;;;22.34;nan
44825;BME280;30542;47.928;2.138;2022-11-23T11:21:40;98533.16;;;22.35;nan
44825;BME280;30542;47.928;2.138;2022-11-23T11:26:52;98527.97;;;22.30;nan
44825;BME280;30542;47.928;2.138;2022-11-23T11:32:04;98536.31;;;22.37;nan
44825;BME280;30542;47.928;2.138;2022-11-23T11:37:31;98548.63;;;22.38;nan
44825;BME280;30542;47.928;2.138;2022-11-23T11:42:39;98577.69;;;22.36;nan
44825;BME280;30542;47.928;2.138;2022-11-23T11:47:48;98570.41;;;22.37;nan
44825;BME280;30542;47.928;2.138;2022-11-23T11:52:55;98576.22;;;22.39;nan
44825;BME280;30542;47.928;2.138;2022-11-23T11:58:03;98586.19;;;22.38;nan
44825;BME280;30542;47.928;2.138;2022-11-23T12:08:38;98608.41;;;22.39;nan
44825;BME280;30542;47.928;2.138;2022-11-23T12:13:42;98617.88;;;22.45;nan
44825;BME280;30542;47.928;2.138;2022-11-23T12:24:04;98641.53;;;22.43;nan
44825;BME280;30542;47.928;2.138;2022-11-23T12:50:52;98712.06;;;22.43;nan
44825;BME280;30542;47.928;2.138;2022-11-23T13:01:23;98743.66;;;22.38;nan
44825;BME280;30542;47.928;2.138;2022-11-23T13:23:16;98808.97;;;22.50;nan
44825;BME280;30542;47.928;2.138;2022-11-23T13:28:30;98817.19;;;22.45;nan
44825;BME280;30542;47.928;2.138;2022-11-23T13:33:36;98842.75;;;22.51;nan
44825;BME280;30542;47.928;2.138;2022-11-23T13:38:42;98856.50;;;22.50;nan
44825;BME280;30542;47.928;2.138;2022-11-23T13:43:42;98878.13;;;22.53;nan
44825;BME280;30542;47.928;2.138;2022-11-23T13:48:47;98888.22;;;22.56;nan
44825;BME280;30542;47.928;2.138;2022-11-23T13:54:23;98904.00;;;22.58;nan
44825;BME280;30542;47.928;2.138;2022-11-23T13:59:32;98918.69;;;22.61;nan
44825;BME280;30542;47.928;2.138;2022-11-23T14:04:44;98922.47;;;22.59;nan
44825;BME280;30542;47.928;2.138;2022-11-23T14:09:51;98922.63;;;22.54;nan
44825;BME280;30542;47.928;2.138;2022-11-23T14:30:34;98981.22;;;22.70;nan
44825;BME280;30542;47.928;2.138;2022-11-23T14:36:03;98985.97;;;22.73;nan
44825;BME280;30542;47.928;2.138;2022-11-23T14:41:08;99000.63;;;22.67;nan
44825;BME280;30542;47.928;2.138;2022-11-23T14:46:20;99017.06;;;22.65;nan
44825;BME280;30542;47.928;2.138;2022-11-23T14:51:23;99032.69;;;22.72;nan
44825;BME280;30542;47.928;2.138;2022-11-23T14:56:38;99031.25;;;22.66;nan
44825;BME280;30542;47.928;2.138;2022-11-23T15:01:46;99052.72;;;22.66;nan
44825;BME280;30542;47.928;2.138;2022-11-23T15:06:49;99056.97;;;22.58;nan
44825;BME280;30542;47.928;2.138;2022-11-23T15:12:16;99075.75;;;22.58;nan
44825;BME280;30542;47.928;2.138;2022-11-23T15:17:20;99090.91;;;22.63;nan
44825;BME280;30542;47.928;2.138;2022-11-23T15:22:21;99092.78;;;22.53;nan
44825;BME280;30542;47.928;2.138;2022-11-23T15:27:27;99098.34;;;22.57;nan
44825;BME280;30542;47.928;2.138;2022-11-23T15:32:29;99119.63;;;22.53;nan
44825;BME280;30542;47.928;2.138;2022-11-23T15:37:31;99116.75;;;22.50;nan
44825;BME280;30542;47.928;2.138;2022-11-23T15:42:33;99136.06;;;22.61;nan
44825;BME280;30542;47.928;2.138;2022-11-23T15:47:36;99145.22;;;22.59;nan
44825;BME280;30542;47.928;2.138;2022-11-23T15:52:37;99159.59;;;22.64;nan
44825;BME280;30542;47.928;2.138;2022-11-23T15:57:37;99161.31;;;22.59;nan
44825;BME280;30542;47.928;2.138;2022-11-23T16:02:39;99179.91;;;22.56;nan
44825;BME280;30542;47.928;2.138;2022-11-23T16:07:53;99193.03;;;22.57;nan
44825;BME280;30542;47.928;2.138;2022-11-23T16:12:56;99198.88;;;22.59;nan
44825;BME280;30542;47.928;2.138;2022-11-23T16:17:58;99211.84;;;22.57;nan
44825;BME280;30542;47.928;2.138;2022-11-23T16:22:59;99221.13;;;22.60;nan
44825;BME280;30542;47.928;2.138;2022-11-23T16:28:05;99234.22;;;22.53;nan
44825;BME280;30542;47.928;2.138;2022-11-23T16:33:15;99243.66;;;22.50;nan
44825;BME280;30542;47.928;2.138;2022-11-23T16:38:16;99253.56;;;22.41;nan
44825;BME280;30542;47.928;2.138;2022-11-23T16:43:17;99262.78;;;22.49;nan
44825;BME280;30542;47.928;2.138;2022-11-23T16:53:26;99291.31;;;22.45;nan
44825;BME280;30542;47.928;2.138;2022-11-23T16:58:32;99303.16;;;22.44;nan
44825;BME280;30542;47.928;2.138;2022-11-23T17:03:33;99308.81;;;22.42;nan
44825;BME280;30542;47.928;2.138;2022-11-23T17:08:34;99311.09;;;22.35;nan
44825;BME280;30542;47.928;2.138;2022-11-23T17:13:34;99319.78;;;22.32;nan
44825;BME280;30542;47.928;2.138;2022-11-23T17:18:34;99331.50;;;22.36;nan
44825;BME280;30542;47.928;2.138;2022-11-23T17:23:35;99350.28;;;22.36;nan
44825;BME280;30542;47.928;2.138;2022-11-23T17:28:35;99348.38;;;22.37;nan
44825;BME280;30542;47.928;2.138;2022-11-23T17:33:35;99361.34;;;22.43;nan
44825;BME280;30542;47.928;2.138;2022-11-23T17:38:38;99382.53;;;22.45;nan
44825;BME280;30542;47.928;2.138;2022-11-23T17:43:38;99380.66;;;22.45;nan
44825;BME280;30542;47.928;2.138;2022-11-23T17:48:38;99392.97;;;22.46;nan
44825;BME280;30542;47.928;2.138;2022-11-23T17:53:39;99398.13;;;22.43;nan
44825;BME280;30542;47.928;2.138;2022-11-23T17:58:40;99402.44;;;22.44;nan
44825;BME280;30542;47.928;2.138;2022-11-23T18:03:43;99402.44;;;22.44;nan
44825;BME280;30542;47.928;2.138;2022-11-23T18:08:44;99405.41;;;22.42;nan
44825;BME280;30542;47.928;2.138;2022-11-23T18:13:45;99415.78;;;22.57;nan
44825;BME280;30542;47.928;2.138;2022-11-23T18:18:48;99421.88;;;22.49;nan
44825;BME280;30542;47.928;2.138;2022-11-23T18:23:50;99429.34;;;22.52;nan
44825;BME280;30542;47.928;2.138;2022-11-23T18:28:50;99433.91;;;22.52;nan
44825;BME280;30542;47.928;2.138;2022-11-23T18:33:51;99429.22;;;22.57;nan
44825;BME280;30542;47.928;2.138;2022-11-23T18:38:51;99446.31;;;22.62;nan
44825;BME280;30542;47.928;2.138;2022-11-23T18:43:51;99462.88;;;22.64;nan
44825;BME280;30542;47.928;2.138;2022-11-23T18:48:52;99469.47;;;22.57;nan
44825;BME280;30542;47.928;2.138;2022-11-23T18:53:53;99473.34;;;22.51;nan
44825;BME280;30542;47.928;2.138;2022-11-23T18:58:54;99481.31;;;22.56;nan
44825;BME280;30542;47.928;2.138;2022-11-23T19:03:55;99490.84;;;22.63;nan
44825;BME280;30542;47.928;2.138;2022-11-23T19:08:55;99489.28;;;22.48;nan
44825;BME280;30542;47.928;2.138;2022-11-23T19:14:00;99492.84;;;22.57;nan
44825;BME280;30542;47.928;2.138;2022-11-23T19:19:04;99516.19;;;22.56;nan
44825;BME280;30542;47.928;2.138;2022-11-23T19:24:05;99520.94;;;22.59;nan
44825;BME280;30542;47.928;2.138;2022-11-23T19:29:07;99519.78;;;22.52;nan
44825;BME280;30542;47.928;2.138;2022-11-23T19:34:08;99516.00;;;22.53;nan
44825;BME280;30542;47.928;2.138;2022-11-23T19:39:09;99533.56;;;22.59;nan
44825;BME280;30542;47.928;2.138;2022-11-23T19:44:11;99532.91;;;22.53;nan
44825;BME280;30542;47.928;2.138;2022-11-23T19:49:11;99538.94;;;22.59;nan
44825;BME280;30542;47.928;2.138;2022-11-23T19:54:12;99548.41;;;22.56;nan
44825;BME280;30542;47.928;2.138;2022-11-23T19:59:12;99560.22;;;22.55;nan
44825;BME280;30542;47.928;2.138;2022-11-23T20:04:13;99555.47;;;22.52;nan
44825;BME280;30542;47.928;2.138;2022-11-23T20:09:16;99560.72;;;22.57;nan
44825;BME280;30542;47.928;2.138;2022-11-23T20:14:18;99545.81;;;22.51;nan
44825;BME280;30542;47.928;2.138;2022-11-23T20:19:19;99568.88;;;22.52;nan
44825;BME280;30542;47.928;2.138;2022-11-23T20:24:19;99570.16;;;22.55;nan
44825;BME280;30542;47.928;2.138;2022-11-23T20:29:20;99569.06;;;22.56;nan
44825;BME280;30542;47.928;2.138;2022-11-23T20:34:20;99563.53;;;22.52;nan
44825;BME280;30542;47.928;2.138;2022-11-23T20:39:21;99575.84;;;22.53;nan
44825;BME280;30542;47.928;2.138;2022-11-23T20:44:22;99587.25;;;22.59;nan
44825;BME280;30542;47.928;2.138;2022-11-23T20:49:24;99591.84;;;22.58;nan
44825;BME280;30542;47.928;2.138;2022-11-23T20:54:25;99591.94;;;22.53;nan
44825;BME280;30542;47.928;2.138;2022-11-23T20:59:25;99599.41;;;22.56;nan
44825;BME280;30542;47.928;2.138;2022-11-23T21:04:25;99601.78;;;22.58;nan
44825;BME280;30542;47.928;2.138;2022-11-23T21:09:26;99608.63;;;22.50;nan
44825;BME280;30542;47.928;2.138;2022-11-23T21:14:26;99618.78;;;22.53;nan
44825;BME280;30542;47.928;2.138;2022-11-23T21:19:31;99627.31;;;22.55;nan
44825;BME280;30542;47.928;2.138;2022-11-23T21:24:32;99652.25;;;22.56;nan
44825;BME280;30542;47.928;2.138;2022-11-23T21:29:33;99636.66;;;22.44;nan
44825;BME280;30542;47.928;2.138;2022-11-23T21:34:34;99648.31;;;22.53;nan
44825;BME280;30542;47.928;2.138;2022-11-23T21:39:34;99654.78;;;22.52;nan
44825;BME280;30542;47.928;2.138;2022-11-23T21:44:35;99654.78;;;22.52;nan
44825;BME280;30542;47.928;2.138;2022-11-23T21:49:35;99650.56;;;22.46;nan
44825;BME280;30542;47.928;2.138;2022-11-23T21:54:35;99640.63;;;22.47;nan
44825;BME280;30542;47.928;2.138;2022-11-23T21:59:37;99650.56;;;22.46;nan
44825;BME280;30542;47.928;2.138;2022-11-23T22:04:38;99654.34;;;22.45;nan
44825;BME280;30542;47.928;2.138;2022-11-23T22:09:38;99666.25;;;22.39;nan
44825;BME280;30542;47.928;2.138;2022-11-23T22:14:38;99668.25;;;22.33;nan
44825;BME280;30542;47.928;2.138;2022-11-23T22:19:39;99669.03;;;22.34;nan
44825;BME280;30542;47.928;2.138;2022-11-23T22:24:39;99663.75;;;22.29;nan
44825;BME280;30542;47.928;2.138;2022-11-23T22:29:40;99669.22;;;22.24;nan
44825;BME280;30542;47.928;2.138;2022-11-23T22:34:40;99673.59;;;22.20;nan
44825;BME280;30542;47.928;2.138;2022-11-23T22:39:41;99676.13;;;22.11;nan
44825;BME280;30542;47.928;2.138;2022-11-23T22:44:41;99684.94;;;22.12;nan
44825;BME280;30542;47.928;2.138;2022-11-23T22:49:41;99698.72;;;22.05;nan
44825;BME280;30542;47.928;2.138;2022-11-23T22:54:42;99695.91;;;21.96;nan
44825;BME280;30542;47.928;2.138;2022-11-23T22:59:42;99708.75;;;21.99;nan
44825;BME280;30542;47.928;2.138;2022-11-23T23:04:42;99710.84;;;22.02;nan
44825;BME280;30542;47.928;2.138;2022-11-23T23:09:43;99715.78;;;21.95;nan
44825;BME280;30542;47.928;2.138;2022-11-23T23:14:43;99715.88;;;21.90;nan
44825;BME280;30542;47.928;2.138;2022-11-23T23:19:43;99736.34;;;21.81;nan
44825;BME280;30542;47.928;2.138;2022-11-23T23:24:44;99748.31;;;21.89;nan
44825;BME280;30542;47.928;2.138;2022-11-23T23:29:44;99747.50;;;21.88;nan
44825;BME280;30542;47.928;2.138;2022-11-23T23:34:45;99747.81;;;21.87;nan
44825;BME280;30542;47.928;2.138;2022-11-23T23:39:45;99734.31;;;21.73;nan
44825;BME280;30542;47.928;2.138;2022-11-23T23:44:45;99808.88;;;21.71;nan
44825;BME280;30542;47.928;2.138;2022-11-23T23:49:46;99779.38;;;21.71;nan
44825;BME280;30542;47.928;2.138;2022-11-23T23:54:46;99774.59;;;21.68;nan
44825;BME280;30542;47.928;2.138;2022-11-23T23:59:46;99781.91;;;21.62;nan
